AirNav   Everest Fuels
 
 984 users online  

M24 Dean Griffin Memorial Airport
Wiggins, Mississippi, USA

GOING TO WIGGINS?


FAA INFORMATION EFFECTIVE 31 JANUARY 2019

Location

FAA Identifier: M24
Lat/Long: 30-50-34.8000N / 089-09-41.4000W
30-50.580000N / 089-09.690000W
30.8430000 / -89.1615000
(estimated)
Elevation: 273 ft. / 83.2 m (surveyed)
Variation: 02E (1985)
From city: 1 mile W of WIGGINS, MS
Time zone: UTC -6 (UTC -5 during Daylight Saving Time)
Zip code: 39577

Airport Operations

Airport use: Open to the public
Control tower: no
ARTCC: HOUSTON CENTER
FSS: GREENWOOD FLIGHT SERVICE STATION
NOTAMs facility: GWO (NOTAM-D service available)
Attendance: 0800-1700
Wind indicator: lighted
Segmented circle: no
Lights: ACTVT MIRL RWY 17/35 - CTAF. PAPI RWY 17 & 35 OPRS CONSLY.
Beacon: white-green (lighted land airport)
Operates sunset to sunrise.

Airport Communications

CTAF/UNICOM: 122.8

Nearby radio navigation aids

VOR radial/distance  VOR name  Freq  Var
GPTr349/26.5GULFPORT VORTAC109.0002E
PCUr055/33.9PICAYUNE VOR/DME112.2005E
LBYr160/35.7EATON VORTAC110.6005E
GCVr241/38.0GREENE COUNTY VORTAC115.7005E

 
NDB name  Hdg/Dist  Freq  Var  ID
BOGALUSA094/36.235300WGVB --. ...- -...

Airport Services

Fuel available: 100LL
FUEL AVBL 24/7 WITH CREDIT CARD.
Parking: tiedowns
Airframe service: NONE
Bottled oxygen: NONE
Bulk oxygen: NONE

Runway Information

Runway 17/35

Dimensions: 3500 x 75 ft. / 1067 x 23 m
Surface: asphalt, in good condition
Weight bearing capacity: 
Single wheel: 20.0
Runway edge lights: medium intensity
Gradient: N
RUNWAY 17  RUNWAY 35
Latitude: 30-50.866725N30-50.293587N
Longitude: 089-09.729418W089-09.649293W
Elevation: 273.0 ft.245.3 ft.
Gradient: 0.6%0.8% UP
Traffic pattern: leftleft
Runway heading: 171 magnetic, 173 true351 magnetic, 353 true
Displaced threshold: 500 ft.no
Markings: basic, in good conditionbasic, in good condition
Visual slope indicator: 2-light PAPI on left (3.00 degrees glide path)2-light PAPI on left (3.00 degrees glide path)
Touchdown point: yes, no lightsyes, no lights
Obstructions: 41 ft. tree, 1200 ft. from runway, 150 ft. left of centerline, 24:1 slope to clear
APPROACH SLOPE 36:1 TO THE DSPLCD THLD.
62 ft. trees, 1440 ft. from runway, 20:1 slope to clear

Airport Ownership and Management from official FAA records

Ownership: Publicly-owned
Owner: CITY OF WIGGINS-STONE CO
117 FIRST STREET
WIGGINS, MS 39577
Phone 601-928-7221
Manager: AIRPORT BOARD
P.O. BOX 219
WIGGINS, MS 39577
Phone 601-928-7221
MR. DURON HATTEN, SEC/TREAS OF ARPT BOARD.

Airport Operational Statistics

Aircraft based on the field: 10
Single engine airplanes: 9
Ultralights: 1
    
Aircraft operations: avg 35/day *
51% local general aviation
45% transient general aviation
4% military
* for 12-month period ending 10 May 2018

Instrument Procedures

There are no published instrument procedures at M24.

Some nearby airports with instrument procedures:

M13 - Poplarville-Pearl River County Airport (18 nm W)
KHBG - Hattiesburg Bobby L Chain Municipal Airport (26 nm N)
KGPT - Gulfport-Biloxi International Airport (27 nm S)
KBIX - Keesler Air Force Base (29 nm SE)
KHSA - Stennis International Airport (32 nm SW)
 
Loc | Ops | Rwys | IFR | FBO | Links
Com | Nav | Svcs | Stats | Notes
Area around M24 (Dean Griffin Memorial Airport)
 
Road maps at: MapQuest Bing Google
 
Aerial photo
No photo
 
Sectional chart

 
Airport distance calculator
Flying to Dean Griffin Memorial Airport? Find the distance to fly.

From to M24

Sunrise and sunset
Times for 19-Feb-2019
 Local
(UTC-6)
 Zulu
(UTC)
Morning civil twilight06:1012:10
Sunrise06:3512:35
Sunset17:4623:46
Evening civil twilight18:1100:11

Current date and time
Zulu (UTC)  20-Feb-2019 02:07:26
Local (UTC-6)  19-Feb-2019 20:07:26
 
METAR
KHBG 
26nm N 
200153Z AUTO 08005KT 4SM -RA BR OVC005 11/11 A3000 RMK AO2 RAE03B46 SLP157 P0000 T01110106
KGPT 
26nm S 
200200Z 14015KT 1/2SM FG VV002 19/19 A2996 RMK AO2 T01890189 RVRNO
KBIX 
29nm SE 
200156Z 14015G19KT 1/2SM R03/3000V3500FT BR VV001 19/19 A2996 RMK AO2A SLP148 T01930193 $
KHSA 
32nm SW 
200148Z 15008KT 1/2SM -RAFG OVC003 20/20 A2995
KBXA 
36nm W 
200155Z AUTO 06004KT 4SM -RA OVC003 13/12 A2996 RMK AO2 T01310116
KPIB 
38nm N 
200156Z AUTO 07007KT 5SM BR OVC004 10/09 A3000 RMK AO2 RAE46 SLP160 T01000094 PNO $
KLUL 
38nm N 
200155Z AUTO 09006KT 10SM OVC005 10/10 A3001 RMK AO2 T00950095
KPQL 
40nm SE 
200153Z 13011G19KT 2SM BR OVC002 21/19 A2999 RMK AO2 SLP156 T02060189
K0R0 
43nm NW 
200155Z AUTO 07006KT 5SM BR OVC004 11/10 A3001 RMK AO2 P0001
KASD 
47nm SW 
200153Z AUTO 05003KT 1/2SM FG VV002 17/16 A2993 RMK AO2 SLP136 T01670156
TAF
KHBG 
26nm N 
191734Z 1918/2018 09011G17KT P6SM VCSH OVC024 FM192100 08015G22KT P6SM VCSH OVC015 FM200100 11012G18KT P6SM -RA OVC007 FM201000 16015G25KT 6SM TSRA BR SCT007 BKN015CB FM201500 17012KT 1 1/2SM -SHRA BR OVC007
KGPT 
26nm S 
191743Z 1918/2018 10014G20KT P6SM OVC013 FM192300 10014G23KT 4SM -SHRA BR OVC007 FM200200 12015G27KT 3SM SHRA BR OVC004 FM200500 13013G22KT 1/4SM SHRA FG OVC003 FM201700 17013G24KT 3SM SHRA BR OVC005
KBIX 
29nm SE 
192200Z 1922/2024 11010G15KT 8000 -RA OVC006 510055 QNH2994INS TEMPO 2006/2009 15015G20KT 8000 -TSRA BKN007CB BECMG 2011/2012 16010G15KT 8000 -RA FEW004 BKN009 OVC017 510055 QNH2989INS TEMPO 2012/2015 16020G40KT 6000 TSRA BKN009CB BECMG 2020/2021 19010G15KT 9999 NSW BKN007 OVC020 QNH2986INS TX20/2018Z TN17/1922Z
NOTAMs
Click for the latest NOTAMs
NOTAMs are issued by the DoD/FAA and will open in a separate window not controlled by AirNav.

 

 
 

FBO, Fuel Providers, and Aircraft Ground Support

  
 Business Name 
 
 Contact 
 
 Services / Description 
 
Fuel Prices
 
Comments
  
Dean Griffin Memorial Airport 601-928-6495
no information available

If you are affiliated with Dean Griffin Memorial Airport and would like to show here your services, contact info, web link, logo, and more, click here
100LL
SS $4.85 
 Updated 04-Feb-2019
 
   write
SS=Self service
Update Fuel Prices
 

Would you like to see your business listed on this page?

 If your business provides an interesting product or service to pilots, flight crews, aircraft, or users of the Dean Griffin Memorial Airport, you should consider listing it here.  To start the listing process, click on the button below
 
Add a business
 

Other Pages about Dean Griffin Memorial Airport

Update a link
 
Copyright © AirNav, LLC. All rights reserved. Privacy Policy  Contact